createdAt,value
2018-11-07T00:00:15.767Z,38.47
2018-11-07T00:02:44.133Z,38.20
2018-11-07T00:05:13.011Z,37.43
2018-11-07T00:07:41.406Z,37.63
2018-11-07T00:10:09.093Z,38.43
2018-11-07T00:12:37.424Z,36.77
2018-11-07T00:15:05.749Z,37.97
2018-11-07T00:17:34.658Z,37.70
2018-11-07T00:20:02.992Z,36.83
2018-11-07T00:22:30.743Z,39.67
2018-11-07T00:24:59.063Z,39.53
2018-11-07T00:27:27.966Z,38.03
2018-11-07T00:29:55.738Z,39.03
2018-11-07T00:32:24.061Z,38.53
2018-11-07T00:34:52.415Z,38.83
2018-11-07T00:37:21.334Z,39.63
2018-11-07T00:39:50.075Z,39.37
2018-11-07T00:42:17.875Z,35.43
2018-11-07T00:44:46.165Z,37.90
2018-11-07T00:47:14.504Z,38.13
2018-11-07T00:49:43.415Z,35.80
2018-11-07T00:52:11.747Z,36.13
2018-11-07T00:54:39.484Z,37.40
2018-11-07T00:57:07.811Z,35.70
2018-11-07T00:59:36.149Z,36.23
2018-11-07T01:02:05.043Z,36.37
2018-11-07T01:04:33.371Z,35.20
2018-11-07T01:07:01.133Z,34.97
2018-11-07T01:09:30.147Z,35.97
2018-11-07T01:11:57.788Z,35.37
2018-11-07T01:14:26.686Z,35.20
2018-11-07T01:16:55.014Z,34.43
2018-11-07T01:19:23.334Z,33.37
2018-11-07T01:21:51.090Z,34.77
2018-11-07T01:24:19.984Z,33.43
2018-11-07T01:26:48.312Z,34.47
2018-11-07T01:29:16.630Z,35.47
2018-11-07T01:31:44.934Z,36.73
2018-11-07T01:34:13.199Z,34.27
2018-11-07T01:36:42.130Z,34.80
2018-11-07T01:39:10.488Z,35.00
2018-11-07T01:41:38.821Z,34.70
2018-11-07T01:44:07.139Z,35.13
2018-11-07T01:46:35.460Z,33.63
2018-11-07T01:49:03.204Z,34.40
2018-11-07T01:51:32.114Z,34.83
2018-11-07T01:53:59.876Z,35.50
2018-11-07T01:56:28.208Z,33.23
2018-11-07T01:58:56.529Z,34.10
2018-11-07T02:01:25.432Z,33.53
2018-11-07T02:03:53.172Z,32.80
2018-11-07T02:06:22.082Z,33.77
2018-11-07T02:08:49.826Z,32.50
2018-11-07T02:11:18.735Z,32.70
2018-11-07T02:13:47.819Z,34.70
2018-11-07T02:16:16.139Z,35.47
2018-11-07T02:18:43.895Z,34.40
2018-11-07T02:21:12.798Z,33.37
2018-11-07T02:23:40.552Z,34.73
2018-11-07T02:26:09.502Z,33.60
2018-11-07T02:28:37.780Z,33.73
2018-11-07T02:31:06.098Z,36.37
2018-11-07T02:33:34.677Z,37.00
2018-11-07T02:36:02.409Z,45.47
2018-11-07T02:38:31.331Z,47.40
2018-11-07T02:40:59.679Z,50.77
2018-11-07T02:43:28.001Z,55.00
2018-11-07T02:45:56.322Z,50.37
2018-11-07T02:48:24.658Z,46.17
2018-11-07T02:50:52.398Z,42.53
2018-11-07T02:53:20.740Z,40.70
2018-11-07T02:55:49.629Z,38.47
2018-11-07T02:58:17.431Z,38.30
2018-11-07T03:00:45.710Z,39.80
2018-11-07T03:03:14.607Z,38.47
2018-11-07T03:05:42.367Z,37.87
2018-11-07T03:08:11.270Z,35.87
2018-11-07T03:10:39.622Z,36.87
2018-11-07T03:13:07.344Z,36.67
2018-11-07T03:15:35.662Z,36.07
2018-11-07T03:18:03.981Z,35.10
2018-11-07T03:20:33.108Z,34.43
2018-11-07T03:23:01.211Z,34.93
2018-11-07T03:25:29.539Z,35.43
2018-11-07T03:27:57.858Z,34.17
2018-11-07T03:30:26.189Z,34.77
2018-11-07T03:32:54.505Z,34.73
2018-11-07T03:35:22.854Z,34.37
2018-11-07T03:37:50.587Z,33.30
2018-11-07T03:40:18.912Z,33.70
2018-11-07T03:42:47.846Z,34.80
2018-11-07T03:45:15.607Z,33.07
2018-11-07T03:47:43.929Z,33.27
2018-11-07T03:50:12.253Z,33.50
2018-11-07T03:52:40.572Z,34.43
2018-11-07T03:55:08.897Z,34.77
2018-11-07T03:57:37.806Z,33.57
2018-11-07T04:00:06.139Z,34.93
2018-11-07T04:02:34.463Z,33.93
2018-11-07T04:05:02.214Z,34.57
2018-11-07T04:07:30.544Z,34.70
2018-11-07T04:09:59.446Z,33.13
2018-11-07T04:12:27.766Z,35.03
2018-11-07T04:14:55.507Z,36.60
2018-11-07T04:17:24.706Z,35.97
2018-11-07T04:19:53.028Z,35.00
2018-11-07T04:22:21.353Z,34.93
2018-11-07T04:24:49.680Z,38.60
2018-11-07T04:27:17.430Z,34.67
2018-11-07T04:29:46.335Z,36.60
2018-11-07T04:32:14.883Z,35.27
2018-11-07T04:34:43.209Z,34.73
2018-11-07T04:37:10.952Z,35.67
2018-11-07T04:39:39.861Z,35.97
2018-11-07T04:42:07.594Z,53.73
2018-11-07T04:44:36.526Z,36.47
2018-11-07T04:47:04.259Z,37.70
2018-11-07T04:49:32.598Z,37.17
2018-11-07T04:52:00.924Z,37.43
2018-11-07T04:54:29.826Z,38.53
2018-11-07T04:56:58.594Z,38.03
2018-11-07T04:59:26.922Z,39.27
2018-11-07T05:01:55.823Z,40.13
2018-11-07T05:04:23.594Z,41.10
2018-11-07T05:06:51.919Z,40.87
2018-11-07T05:09:20.815Z,40.30
2018-11-07T05:11:48.556Z,41.13
2018-11-07T05:14:17.467Z,42.60
2018-11-07T05:16:45.205Z,40.33
2018-11-07T05:19:14.169Z,122.90
2018-11-07T05:21:41.930Z,52.87
2018-11-07T05:24:10.256Z,43.40
2018-11-07T05:26:39.172Z,40.50
2018-11-07T05:29:06.923Z,41.80
2018-11-07T05:31:35.842Z,42.27
2018-11-07T05:34:04.176Z,40.20
2018-11-07T05:36:32.615Z,40.67
2018-11-07T05:39:00.952Z,45.13
2018-11-07T05:41:29.281Z,41.60
2018-11-07T05:43:57.619Z,40.67
2018-11-07T05:46:25.385Z,40.93
2018-11-07T05:48:54.639Z,41.43
2018-11-07T05:51:22.910Z,42.07
2018-11-07T05:53:50.779Z,43.17
2018-11-07T05:56:19.002Z,42.23
2018-11-07T05:58:47.330Z,41.20
2018-11-07T06:01:15.656Z,43.47
2018-11-07T06:03:44.574Z,99.77
2018-11-07T06:06:12.906Z,46.43
2018-11-07T06:08:41.253Z,43.00
2018-11-07T06:11:09.580Z,44.37
2018-11-07T06:13:37.384Z,42.67
2018-11-07T06:16:06.267Z,42.57
2018-11-07T06:18:34.557Z,42.87
2018-11-07T06:21:03.249Z,43.37
2018-11-07T06:23:31.578Z,42.00
2018-11-07T06:25:59.332Z,42.90
2018-11-07T06:28:28.248Z,43.30
2018-11-07T06:30:56.566Z,42.50
2018-11-07T06:33:24.889Z,43.97
2018-11-07T06:35:53.235Z,42.63
2018-11-07T06:38:21.582Z,43.50
2018-11-07T06:40:49.942Z,43.07
2018-11-07T06:43:18.260Z,61.83
2018-11-07T06:45:46.926Z,42.73
2018-11-07T06:48:15.086Z,43.37
2018-11-07T06:50:43.022Z,49.03
2018-11-07T06:53:11.919Z,44.00
2018-11-07T06:55:39.681Z,45.17
2018-11-07T06:58:07.987Z,42.60
2018-11-07T07:00:36.321Z,47.50
2018-11-07T07:03:04.644Z,58.47
2018-11-07T07:05:33.052Z,50.07
2018-11-07T07:08:01.883Z,47.07
2018-11-07T07:10:30.204Z,44.73
2018-11-07T07:12:58.542Z,42.60
2018-11-07T07:15:26.852Z,42.33
2018-11-07T07:17:55.191Z,43.90
2018-11-07T07:20:23.490Z,48.37
2018-11-07T07:22:51.809Z,42.53
2018-11-07T07:25:20.131Z,42.50
2018-11-07T07:27:47.883Z,41.20
2018-11-07T07:30:17.080Z,41.20
2018-11-07T07:32:45.164Z,42.93
2018-11-07T07:35:13.502Z,42.77
2018-11-07T07:37:41.820Z,42.50
2018-11-07T07:40:09.561Z,43.87
2018-11-07T07:42:38.475Z,43.27
2018-11-07T07:45:06.207Z,43.33
2018-11-07T07:47:34.550Z,41.53
2018-11-07T07:50:03.510Z,56.20
2018-11-07T07:52:31.261Z,43.57
2018-11-07T07:55:00.176Z,42.03
2018-11-07T07:57:28.508Z,40.80
2018-11-07T07:59:56.249Z,41.27
2018-11-07T08:02:24.578Z,39.87
2018-11-07T08:04:53.476Z,39.10
2018-11-07T08:07:21.223Z,41.77
2018-11-07T08:09:49.555Z,39.73
2018-11-07T08:12:18.460Z,39.80
2018-11-07T08:14:46.248Z,41.90
2018-11-07T08:17:15.157Z,41.47
2018-11-07T08:19:43.487Z,43.90
2018-11-07T08:22:11.243Z,44.83
2018-11-07T08:24:39.562Z,42.50
2018-11-07T08:27:08.386Z,41.37
2018-11-07T08:29:36.801Z,41.57
2018-11-07T08:32:05.151Z,42.50
2018-11-07T08:34:33.468Z,42.53
2018-11-07T08:37:01.222Z,42.37
2018-11-07T08:39:29.548Z,42.60
2018-11-07T08:41:57.876Z,42.27
2018-11-07T08:44:26.209Z,40.03
2018-11-07T08:46:55.663Z,40.20
2018-11-07T08:49:23.747Z,41.00
2018-11-07T08:51:52.099Z,40.10
2018-11-07T08:54:20.436Z,39.90
2018-11-07T08:56:48.763Z,39.73
2018-11-07T08:59:17.090Z,41.20
2018-11-07T09:01:45.424Z,39.90
2018-11-07T09:04:13.167Z,40.97
2018-11-07T09:06:41.497Z,40.77
2018-11-07T09:09:09.859Z,40.30
2018-11-07T09:11:38.457Z,41.10
2018-11-07T09:14:06.780Z,43.33
2018-11-07T09:16:35.105Z,40.23
2018-11-07T09:19:03.434Z,40.87
2018-11-07T09:21:32.344Z,42.90
2018-11-07T09:24:00.674Z,42.67
2018-11-07T09:26:29.141Z,39.90
2018-11-07T09:28:56.886Z,40.60
2018-11-07T09:31:25.811Z,42.47
2018-11-07T09:33:54.115Z,43.67
2018-11-07T09:36:22.439Z,42.43
2018-11-07T09:38:50.188Z,41.77
2018-11-07T09:41:19.100Z,41.27
2018-11-07T09:43:47.423Z,39.93
2018-11-07T09:46:15.748Z,40.67
2018-11-07T09:48:44.083Z,42.57
2018-11-07T09:51:12.415Z,42.33
2018-11-07T09:53:40.787Z,43.13
2018-11-07T09:56:08.508Z,41.90
2018-11-07T09:58:37.417Z,42.83
2018-11-07T10:01:05.757Z,42.73
2018-11-07T10:03:33.496Z,41.20
2018-11-07T10:06:01.817Z,41.27
2018-11-07T10:08:30.727Z,41.90
2018-11-07T10:10:58.473Z,42.03
2018-11-07T10:13:27.371Z,41.83
2018-11-07T10:15:55.123Z,43.03
2018-11-07T10:18:23.735Z,43.20
2018-11-07T10:20:52.352Z,44.13
2018-11-07T10:23:20.697Z,41.83
2018-11-07T10:25:49.025Z,42.37
2018-11-07T10:28:16.881Z,44.90
2018-11-07T10:30:45.112Z,44.50
2018-11-07T10:33:13.435Z,47.67
2018-11-07T10:35:41.764Z,46.83
2018-11-07T10:38:10.171Z,46.63
2018-11-07T10:40:38.426Z,47.33
2018-11-07T10:43:07.333Z,46.43
2018-11-07T10:45:35.074Z,47.03
2018-11-07T10:48:03.981Z,42.83
2018-11-07T10:50:32.311Z,41.87
2018-11-07T10:53:00.638Z,41.00
2018-11-07T10:55:28.997Z,41.73
2018-11-07T10:57:57.340Z,40.30
2018-11-07T11:00:25.668Z,41.97
2018-11-07T11:02:53.992Z,41.70
2018-11-07T11:05:21.761Z,40.80
2018-11-07T11:07:50.655Z,41.93
2018-11-07T11:10:18.981Z,42.13
2018-11-07T11:12:47.314Z,43.27
2018-11-07T11:15:15.079Z,47.03
2018-11-07T11:17:43.405Z,50.80
2018-11-07T11:20:12.309Z,51.10
2018-11-07T11:22:40.643Z,47.67
2018-11-07T11:25:08.393Z,43.37
2018-11-07T11:27:36.835Z,45.43
2018-11-07T11:30:05.629Z,44.70
2018-11-07T11:32:33.371Z,44.97
2018-11-07T11:35:01.847Z,43.63
2018-11-07T11:37:30.027Z,44.90
2018-11-07T11:39:58.362Z,44.70
2018-11-07T11:42:27.283Z,47.03
2018-11-07T11:44:55.025Z,46.00
2018-11-07T11:47:23.352Z,46.63
2018-11-07T11:49:51.694Z,45.87
2018-11-07T11:52:20.029Z,45.47
2018-11-07T11:54:48.373Z,44.07
2018-11-07T11:57:17.299Z,44.80
2018-11-07T11:59:45.847Z,43.23
2018-11-07T12:02:13.454Z,44.33
2018-11-07T12:04:41.719Z,45.70
2018-11-07T12:07:10.626Z,48.67
2018-11-07T12:09:38.374Z,49.53
2018-11-07T12:12:07.300Z,51.27
2018-11-07T12:14:35.028Z,51.53
2018-11-07T12:17:03.353Z,48.33
2018-11-07T12:19:32.248Z,47.70
2018-11-07T12:22:01.163Z,47.90
2018-11-07T12:24:29.494Z,49.17
2018-11-07T12:26:57.899Z,47.93
2018-11-07T12:29:25.582Z,46.63
2018-11-07T12:31:54.541Z,46.50
2018-11-07T12:34:22.290Z,46.77
2018-11-07T12:36:51.197Z,48.30
2018-11-07T12:39:19.560Z,48.47
2018-11-07T12:41:47.304Z,47.53
2018-11-07T12:44:16.215Z,47.17
2018-11-07T12:46:44.836Z,47.87
2018-11-07T12:49:13.170Z,47.13
2018-11-07T12:51:41.496Z,46.27
2018-11-07T12:54:09.828Z,47.03
2018-11-07T12:56:39.235Z,46.57
2018-11-07T12:59:07.590Z,45.83
2018-11-07T13:01:35.919Z,45.83
2018-11-07T13:04:04.245Z,46.83
2018-11-07T13:06:31.987Z,63.73
2018-11-07T13:09:00.333Z,49.33
2018-11-07T13:11:28.697Z,48.17
2018-11-07T13:13:57.584Z,47.13
2018-11-07T13:16:25.971Z,46.20
2018-11-07T13:18:54.255Z,47.80
2018-11-07T13:21:22.002Z,46.70
2018-11-07T13:23:50.909Z,44.80
2018-11-07T13:26:19.244Z,46.47
2018-11-07T13:28:47.635Z,46.17
2018-11-07T13:31:15.907Z,46.70
2018-11-07T13:33:43.660Z,46.00
2018-11-07T13:36:12.569Z,46.20
2018-11-07T13:38:41.209Z,46.80
2018-11-07T13:41:09.302Z,47.00
2018-11-07T13:43:37.561Z,47.40
2018-11-07T13:46:05.359Z,47.13
2018-11-07T13:48:33.646Z,47.20
2018-11-07T13:51:01.981Z,48.17
2018-11-07T13:53:30.885Z,49.20
2018-11-07T13:55:58.634Z,46.77
2018-11-07T13:58:26.972Z,47.53
2018-11-07T14:00:55.932Z,47.77
2018-11-07T14:03:24.267Z,44.93
2018-11-07T14:05:52.645Z,45.67
2018-11-07T14:08:20.928Z,48.23
2018-11-07T14:10:49.252Z,48.37
2018-11-07T14:13:17.602Z,49.23
2018-11-07T14:15:45.808Z,48.20
2018-11-07T14:18:14.263Z,57.20
2018-11-07T14:20:42.614Z,236.30
2018-11-07T14:23:10.349Z,65.47
2018-11-07T14:25:39.267Z,48.17
2018-11-07T14:28:07.811Z,48.07
2018-11-07T14:30:35.349Z,49.90
2018-11-07T14:33:04.268Z,49.23
2018-11-07T14:35:32.008Z,48.00
2018-11-07T14:38:00.347Z,51.03
2018-11-07T14:40:28.686Z,51.73
2018-11-07T14:42:57.593Z,51.63
2018-11-07T14:45:25.337Z,52.40
2018-11-07T14:47:54.321Z,52.97
2018-11-07T14:50:21.997Z,53.27
2018-11-07T14:52:50.906Z,54.70
2018-11-07T14:55:19.234Z,55.47
2018-11-07T14:57:47.558Z,58.67
2018-11-07T15:00:15.890Z,65.33
2018-11-07T15:02:44.335Z,57.60
2018-11-07T15:05:11.986Z,58.90
2018-11-07T15:07:40.931Z,57.60
2018-11-07T15:10:09.289Z,62.07
2018-11-07T15:12:37.629Z,58.27
2018-11-07T15:15:06.026Z,65.13
2018-11-07T15:17:34.357Z,65.27
2018-11-07T15:20:02.695Z,81.37
2018-11-07T15:22:31.026Z,116.80
2018-11-07T15:24:59.533Z,100.50
2018-11-07T15:27:27.194Z,98.63
2018-11-07T15:29:56.109Z,81.43
2018-11-07T15:32:23.875Z,112.93
2018-11-07T15:34:52.216Z,109.07
2018-11-07T15:37:20.572Z,78.30
2018-11-07T15:39:48.900Z,63.90
2018-11-07T15:42:17.812Z,59.20
2018-11-07T15:44:46.137Z,54.90
2018-11-07T15:47:13.885Z,53.90
2018-11-07T15:49:42.793Z,55.20
2018-11-07T15:52:11.132Z,56.43
2018-11-07T15:54:39.459Z,57.10
2018-11-07T15:57:07.789Z,56.67
2018-11-07T15:59:36.114Z,58.17
2018-11-07T16:02:03.860Z,58.27
2018-11-07T16:04:32.219Z,62.43
2018-11-07T16:07:01.130Z,63.77
2018-11-07T16:09:29.460Z,73.77
2018-11-07T16:11:57.823Z,74.13
2018-11-07T16:14:26.168Z,71.10
2018-11-07T16:19:22.838Z,70.37
2018-11-07T16:21:51.168Z,65.07
2018-11-07T16:24:19.496Z,63.07
2018-11-07T16:26:47.835Z,62.50
2018-11-07T16:29:16.161Z,62.90
2018-11-07T16:31:43.940Z,65.67
2018-11-07T16:34:12.817Z,65.60
2018-11-07T16:36:40.595Z,65.40
2018-11-07T16:39:09.527Z,60.90
2018-11-07T16:41:38.138Z,59.57
2018-11-07T16:44:05.732Z,63.90
2018-11-07T16:46:34.645Z,67.40
2018-11-07T16:49:02.416Z,73.00
2018-11-07T16:51:31.336Z,68.10
2018-11-07T16:53:59.674Z,68.77
2018-11-07T16:56:27.429Z,70.00
2018-11-07T16:58:56.380Z,73.83
2018-11-07T17:01:24.686Z,70.87
2018-11-07T17:03:53.024Z,69.60
2018-11-07T17:06:21.380Z,68.23
2018-11-07T17:08:49.725Z,70.77
2018-11-07T17:11:18.060Z,70.00
2018-11-07T17:13:46.401Z,73.40
2018-11-07T17:16:14.735Z,76.63
2018-11-07T17:18:43.064Z,72.73
2018-11-07T17:21:11.390Z,83.23
2018-11-07T17:23:39.146Z,85.13
2018-11-07T17:26:08.060Z,99.43
2018-11-07T17:28:36.401Z,99.00
2018-11-07T17:31:05.347Z,92.90
2018-11-07T17:33:33.106Z,97.93
2018-11-07T17:36:02.028Z,95.87
2018-11-07T17:38:29.832Z,93.27
2018-11-07T17:40:58.732Z,92.63
2018-11-07T17:43:27.068Z,91.80
2018-11-07T17:45:54.832Z,89.00
2018-11-07T17:48:23.209Z,136.37
2018-11-07T17:50:51.509Z,86.40
2018-11-07T17:53:20.426Z,93.10
2018-11-07T17:55:49.937Z,89.03
2018-11-07T17:58:18.402Z,86.17
2018-11-07T18:00:46.741Z,126.27
2018-11-07T18:03:14.493Z,74.73
2018-11-07T18:05:43.511Z,70.47
2018-11-07T18:08:11.846Z,75.53
2018-11-07T18:10:40.245Z,66.60
2018-11-07T18:13:08.729Z,67.67
2018-11-07T18:15:37.071Z,64.50
2018-11-07T18:18:04.876Z,66.30
2018-11-07T18:20:33.245Z,65.57
2018-11-07T18:23:02.165Z,64.33
2018-11-07T18:25:30.498Z,63.37
2018-11-07T18:27:58.837Z,66.97
2018-11-07T18:30:27.171Z,64.33
2018-11-07T18:32:55.520Z,71.27
2018-11-07T18:35:23.975Z,69.60
2018-11-07T18:37:52.069Z,73.17
2018-11-07T18:40:20.510Z,70.77
2018-11-07T18:42:48.878Z,76.47
2018-11-07T18:45:16.601Z,76.63
2018-11-07T18:47:45.665Z,76.53
2018-11-07T18:50:14.254Z,207.40
2018-11-07T18:52:42.532Z,106.50
2018-11-07T18:55:10.913Z,84.40
2018-11-07T18:57:39.357Z,71.93
2018-11-07T19:00:07.721Z,66.30
2018-11-07T19:02:36.066Z,63.77
2018-11-07T19:05:04.516Z,75.03
2018-11-07T19:07:32.853Z,64.13
2018-11-07T19:10:02.119Z,83.07
2018-11-07T19:12:30.531Z,95.23
2018-11-07T19:14:58.913Z,76.53
2018-11-07T19:17:27.250Z,66.33
2018-11-07T19:19:55.639Z,67.30
2018-11-07T19:22:23.970Z,66.17
2018-11-07T19:24:51.724Z,66.30
2018-11-07T19:27:20.243Z,64.07
2018-11-07T19:29:48.656Z,61.07
2018-11-07T19:32:17.006Z,67.13
2018-11-07T19:34:45.934Z,67.77
2018-11-07T19:37:14.328Z,61.53
2018-11-07T19:39:42.738Z,62.17
2018-11-07T19:42:11.088Z,60.47
2018-11-07T19:44:38.840Z,68.93
2018-11-07T19:47:07.898Z,62.43
2018-11-07T19:49:36.149Z,70.60
2018-11-07T19:52:04.493Z,62.80
2018-11-07T19:54:32.474Z,59.93
2018-11-07T19:57:00.857Z,60.20
2018-11-07T19:59:29.216Z,60.43
2018-11-07T20:01:58.134Z,62.37
2018-11-07T20:04:26.527Z,63.23
2018-11-07T20:06:54.911Z,78.30
2018-11-07T20:09:23.262Z,67.63
2018-11-07T20:11:51.098Z,61.07
2018-11-07T20:14:20.025Z,61.87
2018-11-07T20:16:48.386Z,65.73
2018-11-07T20:19:16.183Z,70.53
2018-11-07T20:21:45.101Z,92.50
2018-11-07T20:24:12.922Z,89.53
2018-11-07T20:26:41.953Z,97.07
2018-11-07T20:29:09.718Z,169.30
2018-11-07T20:31:38.658Z,145.83
2018-11-07T20:34:06.994Z,120.10
2018-11-07T20:36:34.741Z,112.33
2018-11-07T20:39:03.688Z,124.93
2018-11-07T20:41:32.178Z,235.87
2018-11-07T20:44:00.452Z,172.77
2018-11-07T20:46:28.205Z,107.23
2018-11-07T20:48:57.164Z,100.37
2018-11-07T20:51:25.567Z,99.20
2018-11-07T20:53:53.995Z,105.80
2018-11-07T20:56:21.746Z,98.00
2018-11-07T20:58:50.092Z,91.53
2018-11-07T21:01:18.526Z,100.70
2018-11-07T21:03:47.527Z,112.43
2018-11-07T21:06:15.877Z,141.23
2018-11-07T21:08:44.294Z,132.63
2018-11-07T21:11:12.629Z,110.67
2018-11-07T21:13:40.429Z,105.00
2018-11-07T21:16:09.418Z,101.20
2018-11-07T21:18:37.754Z,96.13
2018-11-07T21:21:06.140Z,102.70
2018-11-07T21:23:34.476Z,101.03
2018-11-07T21:26:02.808Z,104.73
2018-11-07T21:28:31.382Z,108.27
2018-11-07T21:30:59.645Z,130.90
2018-11-07T21:33:27.987Z,156.00
2018-11-07T21:35:55.850Z,132.53
2018-11-07T21:38:24.831Z,119.97
2018-11-07T21:40:53.206Z,118.60
2018-11-07T21:43:22.529Z,101.67
2018-11-07T21:45:49.985Z,95.23
2018-11-07T21:48:18.373Z,100.60
2018-11-07T21:50:46.737Z,113.47
2018-11-07T21:53:15.086Z,122.37
2018-11-07T21:55:43.427Z,130.17
2018-11-07T21:58:11.881Z,156.53
2018-11-07T22:00:39.669Z,250.70
2018-11-07T22:03:11.622Z,233.27
2018-11-07T22:05:40.005Z,154.67
2018-11-07T22:08:08.370Z,142.03
2018-11-07T22:10:36.147Z,125.23
2018-11-07T22:13:05.189Z,131.03
2018-11-07T22:15:33.615Z,138.87
2018-11-07T22:18:01.417Z,214.77
2018-11-07T22:20:29.777Z,192.10
2018-11-07T22:22:58.791Z,148.10
2018-11-07T22:25:27.194Z,125.57
2018-11-07T22:27:54.943Z,113.73
2018-11-07T22:30:23.906Z,101.40
2018-11-07T22:32:51.694Z,106.80
2018-11-07T22:35:21.546Z,118.10
2018-11-07T22:37:49.990Z,128.17
2018-11-07T22:40:18.335Z,143.03
2018-11-07T22:42:46.675Z,149.80
2018-11-07T22:45:15.022Z,116.60
2018-11-07T22:47:43.427Z,122.50
2018-11-07T22:50:11.224Z,107.87
2018-11-07T22:52:40.123Z,102.83
2018-11-07T22:55:07.884Z,99.40
2018-11-07T22:57:36.798Z,99.07
2018-11-07T23:00:05.140Z,92.47
2018-11-07T23:02:33.483Z,97.20
2018-11-07T23:05:01.820Z,79.57
2018-11-07T23:07:30.158Z,86.07
2018-11-07T23:09:58.506Z,86.07
2018-11-07T23:12:26.853Z,84.03
2018-11-07T23:14:55.191Z,80.10
2018-11-07T23:17:23.603Z,88.83
2018-11-07T23:19:51.944Z,81.80
2018-11-07T23:22:20.292Z,83.73
2018-11-07T23:24:48.052Z,84.03
2018-11-07T23:27:16.427Z,84.97
2018-11-07T23:29:44.773Z,81.73
2018-11-07T23:32:13.707Z,98.33
2018-11-07T23:34:41.472Z,89.53
2018-11-07T23:37:10.418Z,85.83
2018-11-07T23:39:38.181Z,84.20
2018-11-07T23:42:07.298Z,86.80
2018-11-07T23:44:35.938Z,80.77
2018-11-07T23:47:04.276Z,83.87
2018-11-07T23:49:32.037Z,84.97
2018-11-07T23:52:00.381Z,90.70
2018-11-07T23:54:29.012Z,98.20
2018-11-07T23:56:57.940Z,100.53
2018-11-07T23:59:25.705Z,92.20
